Time;durP1;ratioP1;P1;durP2;ratioP2;P2;SDS_P1;SDS_P2;PMS_P1;PMS_P2;Temp;Humidity;BMP_temperature;BMP_pressure;BME280_temperature;BME280_humidity;BME280_pressure;Samples;Min_cycle;Max_cycle;Signal;HPM_P1;HPM_P2
2021/07/28 00:01:12;;;;;;;59.03;32.00;;;17.40;99.90;;;;;;5008982;28;20764;-63
2021/07/28 00:03:39;;;;;;;57.65;33.03;;;17.40;99.90;;;;;;5008789;28;20275;-62
2021/07/28 00:06:05;;;;;;;54.60;31.08;;;17.50;99.90;;;;;;5010717;28;20270;-65
2021/07/28 00:08:32;;;;;;;54.70;32.10;;;17.40;99.90;;;;;;5009434;28;20218;-66
2021/07/28 00:11:00;;;;;;;63.30;33.78;;;17.40;99.90;;;;;;5011866;28;20717;-64
2021/07/28 00:13:27;;;;;;;56.40;32.63;;;17.40;99.90;;;;;;5012077;28;20711;-63
2021/07/28 00:15:55;;;;;;;56.92;32.85;;;17.40;99.90;;;;;;5011686;28;20205;-64
2021/07/28 00:18:37;;;;;;;55.08;31.55;;;17.40;99.90;;;;;;5012876;28;20209;-64
2021/07/28 00:23:49;;;;;;;51.88;29.85;;;17.30;99.90;;;;;;5011568;28;20208;-65
2021/07/28 00:26:17;;;;;;;53.17;29.83;;;17.30;99.90;;;;;;5011814;28;20211;-64
2021/07/28 00:28:43;;;;;;;52.67;30.38;;;17.30;99.90;;;;;;5012112;28;20217;-64
2021/07/28 00:31:10;;;;;;;58.35;31.40;;;17.30;99.90;;;;;;5011955;28;20208;-64
2021/07/28 00:33:37;;;;;;;55.25;29.92;;;17.20;99.90;;;;;;5013155;28;20287;-62
2021/07/28 00:36:04;;;;;;;50.47;28.98;;;17.20;99.90;;;;;;5009710;28;20684;-62
2021/07/28 00:38:31;;;;;;;48.22;28.23;;;17.30;99.90;;;;;;5014453;28;20566;-66
2021/07/28 00:40:57;;;;;;;50.10;29.13;;;17.20;99.90;;;;;;5007089;28;20204;-65
2021/07/28 00:43:26;;;;;;;53.22;29.50;;;17.20;99.90;;;;;;5006506;28;20204;-63
2021/07/28 00:45:53;;;;;;;49.72;27.58;;;17.20;99.90;;;;;;5012027;28;20212;-66
2021/07/28 00:48:19;;;;;;;44.40;27.75;;;17.20;99.90;;;;;;5014162;28;20204;-66
2021/07/28 00:50:46;;;;;;;48.08;27.33;;;17.20;99.90;;;;;;5009796;28;20239;-63
2021/07/28 00:53:18;;;;;;;47.95;26.75;;;17.20;99.90;;;;;;5011890;28;20216;-65
2021/07/28 00:55:46;;;;;;;44.45;26.73;;;17.20;99.90;;;;;;5011073;28;20696;-64
2021/07/28 00:58:13;;;;;;;43.53;26.65;;;17.20;99.90;;;;;;5011491;28;20619;-65
2021/07/28 01:00:41;;;;;;;42.80;26.65;;;17.10;99.90;;;;;;5008751;28;20209;-64
2021/07/28 01:03:08;;;;;;;43.35;26.38;;;17.10;99.90;;;;;;5012625;28;20263;-67
2021/07/28 01:05:35;;;;;;;40.75;25.45;;;17.10;99.90;;;;;;5011686;28;20258;-64
2021/07/28 01:08:02;;;;;;;44.30;25.63;;;17.10;99.90;;;;;;4990110;28;20200;-65
2021/07/28 01:10:29;;;;;;;40.67;24.52;;;17.10;99.90;;;;;;5014670;28;20223;-63
2021/07/28 01:12:56;;;;;;;44.05;25.90;;;17.00;99.90;;;;;;5011584;28;20200;-65
2021/07/28 01:15:32;;;;;;;41.80;24.10;;;17.00;99.90;;;;;;5011596;28;20258;-67
2021/07/28 01:18:01;;;;;;;36.20;24.33;;;17.00;99.90;;;;;;5013041;28;20537;-64
2021/07/28 01:20:34;;;;;;;43.72;24.25;;;17.00;99.90;;;;;;5013199;28;20236;-65
2021/07/28 01:23:03;;;;;;;45.30;24.58;;;17.00;99.90;;;;;;5012703;28;20204;-63
2021/07/28 01:25:32;;;;;;;41.17;24.48;;;17.00;99.90;;;;;;5015980;28;20285;-66
2021/07/28 01:28:01;;;;;;;42.17;23.50;;;17.00;99.90;;;;;;5009274;28;20262;-66
2021/07/28 01:30:28;;;;;;;41.78;23.98;;;16.90;99.90;;;;;;5009413;28;20303;-64
2021/07/28 01:32:56;;;;;;;38.10;23.73;;;16.90;99.90;;;;;;5010123;28;20208;-66
2021/07/28 01:35:25;;;;;;;40.03;22.23;;;16.90;99.90;;;;;;5009552;28;20204;-64
2021/07/28 01:37:51;;;;;;;42.22;23.60;;;16.90;99.90;;;;;;5011672;28;20266;-65
2021/07/28 01:40:18;;;;;;;37.75;22.88;;;16.90;99.90;;;;;;5011824;28;20193;-64
2021/07/28 01:42:48;;;;;;;37.40;23.10;;;16.90;99.90;;;;;;5013270;28;20696;-66
2021/07/28 01:45:17;;;;;;;38.45;22.73;;;16.90;99.90;;;;;;5011965;28;20201;-67
2021/07/28 01:47:45;;;;;;;37.92;22.98;;;16.80;99.90;;;;;;5011365;28;20643;-65
2021/07/28 01:50:13;;;;;;;36.00;22.48;;;16.80;99.90;;;;;;5011074;28;20306;-67
2021/07/28 01:52:41;;;;;;;40.10;23.15;;;16.90;99.90;;;;;;5009590;28;20212;-65
2021/07/28 01:55:09;;;;;;;43.90;23.58;;;16.80;99.90;;;;;;5010121;28;20661;-66
2021/07/28 01:57:36;;;;;;;37.67;24.17;;;16.80;99.90;;;;;;5009831;28;21936;-63
2021/07/28 02:00:05;;;;;;;44.55;24.05;;;16.80;99.90;;;;;;5008610;28;20188;-65
2021/07/28 02:02:34;;;;;;;39.63;23.30;;;16.80;99.90;;;;;;5009797;28;20212;-64
2021/07/28 02:05:01;;;;;;;41.70;24.67;;;16.80;99.90;;;;;;5009363;28;20551;-65
2021/07/28 02:07:28;;;;;;;45.90;24.73;;;16.80;99.90;;;;;;5009174;28;20259;-66
2021/07/28 02:09:55;;;;;;;45.63;24.08;;;16.70;99.90;;;;;;5013066;28;20224;-66
2021/07/28 02:12:22;;;;;;;47.30;25.73;;;16.70;99.90;;;;;;5014531;28;20201;-65
2021/07/28 02:14:49;;;;;;;45.53;24.95;;;16.70;99.90;;;;;;5013094;28;20562;-64
2021/07/28 02:17:17;;;;;;;42.78;25.30;;;16.70;99.90;;;;;;5014852;28;20614;-65
2021/07/28 02:19:44;;;;;;;44.40;25.30;;;16.70;99.90;;;;;;5008102;28;20205;-63
2021/07/28 02:22:11;;;;;;;44.45;25.08;;;16.70;99.90;;;;;;5009668;28;20199;-65
2021/07/28 02:24:39;;;;;;;44.78;24.73;;;16.70;99.90;;;;;;5010442;28;20219;-65
2021/07/28 02:27:06;;;;;;;58.70;26.52;;;16.70;99.90;;;;;;5010730;28;20662;-64
2021/07/28 02:29:33;;;;;;;47.13;25.90;;;16.70;99.90;;;;;;5009964;28;20204;-65
2021/07/28 02:32:01;;;;;;;47.15;25.75;;;16.70;99.90;;;;;;5008012;28;20208;-64
2021/07/28 02:34:30;;;;;;;45.50;25.90;;;16.70;99.90;;;;;;5007403;28;20622;-64
2021/07/28 02:36:56;;;;;;;50.13;26.10;;;16.70;99.90;;;;;;5008642;28;20276;-63
2021/07/28 02:39:23;;;;;;;50.00;25.90;;;16.70;99.90;;;;;;5007824;28;20212;-65
2021/07/28 02:41:50;;;;;;;48.67;26.42;;;16.70;99.90;;;;;;5009077;28;20290;-64
2021/07/28 02:44:17;;;;;;;52.90;26.25;;;16.60;99.90;;;;;;5007945;28;20552;-65
2021/07/28 02:46:44;;;;;;;47.53;26.40;;;16.70;99.90;;;;;;5009644;28;20219;-68
2021/07/28 02:49:11;;;;;;;50.60;26.88;;;16.60;99.90;;;;;;5007604;28;20231;-64
2021/07/28 02:51:39;;;;;;;50.67;26.52;;;16.60;99.90;;;;;;5009717;28;20271;-64
2021/07/28 02:54:06;;;;;;;51.80;28.15;;;16.60;99.90;;;;;;5009096;28;20197;-63
2021/07/28 02:56:33;;;;;;;49.67;26.27;;;16.60;99.90;;;;;;5011932;28;20247;-64
2021/07/28 02:58:59;;;;;;;49.33;26.35;;;16.60;99.90;;;;;;5010045;28;20258;-65
2021/07/28 03:01:26;;;;;;;51.85;27.17;;;16.60;99.90;;;;;;5013676;28;20206;-64
2021/07/28 03:03:53;;;;;;;53.13;28.58;;;16.60;99.90;;;;;;5008658;28;20201;-63
2021/07/28 03:06:20;;;;;;;52.60;27.58;;;16.60;99.90;;;;;;5012947;28;20255;-65
2021/07/28 03:08:48;;;;;;;49.53;26.92;;;16.60;99.90;;;;;;4989082;28;20265;-65
2021/07/28 03:11:15;;;;;;;51.97;28.13;;;16.60;99.90;;;;;;5003731;28;20227;-63
2021/07/28 03:13:41;;;;;;;55.90;27.88;;;16.60;99.90;;;;;;5010890;28;20200;-64
2021/07/28 03:16:09;;;;;;;55.13;29.48;;;16.60;99.90;;;;;;5008709;28;20311;-65
2021/07/28 03:18:35;;;;;;;52.75;28.25;;;16.50;99.90;;;;;;5009054;28;20710;-64
2021/07/28 03:21:02;;;;;;;53.67;26.77;;;16.60;99.90;;;;;;5009837;28;20653;-67
2021/07/28 03:23:29;;;;;;;58.33;28.67;;;16.50;99.90;;;;;;5010833;28;20196;-65
2021/07/28 03:25:57;;;;;;;55.22;28.05;;;16.50;99.90;;;;;;5010638;28;20193;-64
2021/07/28 03:28:24;;;;;;;54.83;29.58;;;16.50;99.90;;;;;;5010507;28;20736;-64
2021/07/28 03:30:51;;;;;;;55.65;29.17;;;16.50;99.90;;;;;;5009445;28;20228;-63
2021/07/28 03:33:19;;;;;;;54.00;29.77;;;16.60;99.90;;;;;;5007904;28;20242;-64
2021/07/28 03:35:46;;;;;;;52.35;27.75;;;16.60;99.90;;;;;;5010297;28;20212;-64
2021/07/28 03:38:14;;;;;;;53.90;28.75;;;16.60;99.90;;;;;;5012302;28;20204;-65
2021/07/28 03:40:41;;;;;;;53.90;27.33;;;16.60;99.90;;;;;;5008332;28;20701;-65
2021/07/28 03:43:10;;;;;;;53.35;29.05;;;16.60;99.90;;;;;;5009202;28;20272;-65
2021/07/28 03:45:36;;;;;;;56.50;30.58;;;16.70;99.90;;;;;;5010350;28;20262;-64
2021/07/28 03:48:04;;;;;;;58.38;30.58;;;16.70;99.90;;;;;;5010277;28;20209;-67
2021/07/28 03:50:30;;;;;;;57.08;29.73;;;16.70;99.90;;;;;;5004783;28;20232;-65
2021/07/28 03:52:58;;;;;;;57.08;29.55;;;16.70;99.90;;;;;;5008661;28;20208;-64
2021/07/28 03:55:25;;;;;;;53.38;29.58;;;16.70;99.90;;;;;;5008578;28;20251;-66
2021/07/28 03:57:52;;;;;;;54.10;29.55;;;16.70;99.90;;;;;;5009722;28;20222;-64
2021/07/28 04:00:21;;;;;;;52.60;30.35;;;16.70;99.90;;;;;;5007340;28;20221;-65
2021/07/28 04:02:47;;;;;;;59.40;31.80;;;16.60;99.90;;;;;;5008481;28;20606;-66
2021/07/28 04:05:14;;;;;;;54.20;30.00;;;16.60;99.90;;;;;;5010517;28;20205;-64
2021/07/28 04:07:42;;;;;;;55.80;30.98;;;16.60;99.90;;;;;;5009495;28;20255;-64
2021/07/28 04:10:10;;;;;;;57.78;31.48;;;16.60;99.90;;;;;;5010122;28;20200;-63
2021/07/28 04:12:37;;;;;;;52.55;30.42;;;16.60;99.90;;;;;;4987046;28;20201;-66
2021/07/28 04:15:04;;;;;;;60.90;30.77;;;16.60;99.90;;;;;;5008358;28;20197;-63
2021/07/28 04:17:32;;;;;;;62.88;33.63;;;16.60;99.90;;;;;;5009389;28;20552;-65
2021/07/28 04:19:59;;;;;;;61.70;33.20;;;16.60;99.90;;;;;;5007636;28;20216;-65
2021/07/28 04:22:26;;;;;;;68.40;33.40;;;16.60;99.90;;;;;;5008283;28;20239;-67
2021/07/28 04:24:53;;;;;;;59.13;32.88;;;16.60;99.90;;;;;;4993948;28;20208;-62
2021/07/28 04:27:20;;;;;;;62.55;33.05;;;16.60;99.90;;;;;;5004904;28;20205;-64
2021/07/28 04:29:47;;;;;;;63.17;33.42;;;16.60;99.90;;;;;;5001608;28;20745;-62
2021/07/28 04:32:14;;;;;;;67.68;35.05;;;16.60;99.90;;;;;;5005157;28;20316;-65
2021/07/28 04:34:42;;;;;;;62.45;33.10;;;16.60;99.90;;;;;;5004000;28;20215;-65
2021/07/28 04:37:09;;;;;;;73.40;35.08;;;16.60;99.90;;;;;;5002714;28;20735;-63
2021/07/28 04:39:36;;;;;;;59.35;33.83;;;16.60;99.90;;;;;;5006500;28;20220;-67
2021/07/28 04:42:03;;;;;;;60.05;34.53;;;16.70;99.90;;;;;;5009235;28;20275;-65
2021/07/28 04:44:29;;;;;;;61.75;33.88;;;16.60;99.90;;;;;;5012839;28;20208;-65
2021/07/28 04:46:56;;;;;;;66.88;33.90;;;16.60;99.90;;;;;;5011481;28;20215;-67
2021/07/28 04:49:24;;;;;;;73.15;35.30;;;16.70;99.90;;;;;;5010654;28;20339;-66
2021/07/28 04:51:52;;;;;;;66.97;35.35;;;16.70;99.90;;;;;;5013164;28;20270;-66
2021/07/28 04:54:18;;;;;;;63.92;34.88;;;16.70;99.90;;;;;;5006089;28;20568;-65
2021/07/28 04:56:45;;;;;;;65.50;35.13;;;16.70;99.90;;;;;;5007355;28;20207;-67
2021/07/28 04:59:12;;;;;;;68.38;36.03;;;16.70;99.90;;;;;;5003778;28;20231;-65
2021/07/28 05:01:39;;;;;;;64.05;35.97;;;16.70;99.90;;;;;;5007194;28;20192;-65
2021/07/28 05:04:09;;;;;;;66.53;35.88;;;16.70;99.90;;;;;;5011427;28;20219;-66
2021/07/28 05:06:36;;;;;;;59.05;33.50;;;16.80;99.90;;;;;;5006157;28;20649;-66
2021/07/28 05:09:04;;;;;;;62.80;34.63;;;16.80;99.90;;;;;;5013626;28;20209;-65
2021/07/28 05:11:31;;;;;;;59.60;33.00;;;16.80;99.90;;;;;;5009069;28;20220;-65
2021/07/28 05:13:57;;;;;;;62.03;33.42;;;16.80;99.90;;;;;;5015405;28;20200;-65
2021/07/28 05:16:24;;;;;;;56.47;31.60;;;16.90;99.90;;;;;;5011426;28;20204;-67
2021/07/28 05:18:51;;;;;;;52.20;30.58;;;16.90;99.90;;;;;;5015598;28;20583;-67
2021/07/28 05:21:18;;;;;;;56.33;31.55;;;16.90;99.90;;;;;;5011338;28;20193;-67
2021/07/28 05:23:44;;;;;;;51.80;30.83;;;16.90;99.90;;;;;;5008397;28;20208;-67
2021/07/28 05:26:13;;;;;;;52.67;30.63;;;16.90;99.90;;;;;;5015530;28;20778;-65
2021/07/28 05:28:40;;;;;;;49.50;31.00;;;16.90;99.90;;;;;;5014997;28;20208;-65
2021/07/28 05:31:07;;;;;;;50.75;31.17;;;16.90;99.90;;;;;;5014243;28;20228;-66
2021/07/28 05:33:34;;;;;;;46.53;28.73;;;16.90;99.90;;;;;;5015939;28;20201;-65
2021/07/28 05:36:00;;;;;;;45.35;28.52;;;17.00;99.90;;;;;;5010035;28;20283;-65
2021/07/28 05:38:27;;;;;;;49.20;28.60;;;17.00;99.90;;;;;;5010737;28;20286;-66
2021/07/28 05:40:56;;;;;;;45.63;27.90;;;17.00;99.90;;;;;;5011066;28;20617;-66
2021/07/28 05:43:25;;;;;;;41.08;27.20;;;17.00;99.90;;;;;;5009511;28;20256;-67
2021/07/28 05:45:52;;;;;;;41.47;26.55;;;17.00;99.90;;;;;;5006356;28;20208;-64
2021/07/28 05:48:19;;;;;;;46.22;27.98;;;17.00;99.90;;;;;;5009909;28;20283;-65
2021/07/28 05:50:45;;;;;;;44.45;27.30;;;17.00;99.90;;;;;;5010376;28;20232;-65
2021/07/28 05:53:12;;;;;;;41.58;25.63;;;17.10;99.90;;;;;;5012736;28;20263;-68
2021/07/28 05:55:39;;;;;;;45.78;27.10;;;17.20;99.90;;;;;;5009486;28;20212;-66
2021/07/28 05:58:06;;;;;;;40.40;25.70;;;17.20;99.90;;;;;;5007708;28;20763;-65
2021/07/28 06:00:34;;;;;;;45.83;26.45;;;17.30;99.90;;;;;;5011154;28;23012;-65
2021/07/28 06:03:01;;;;;;;42.78;24.95;;;17.30;99.90;;;;;;5009756;28;20215;-64
2021/07/28 06:05:28;;;;;;;35.08;24.15;;;17.40;99.90;;;;;;5009808;28;20668;-66
2021/07/28 06:07:55;;;;;;;33.90;22.83;;;17.40;99.90;;;;;;5011173;28;20559;-66
2021/07/28 06:10:21;;;;;;;33.60;21.83;;;17.50;99.90;;;;;;5010709;28;20679;-67
2021/07/28 06:12:48;;;;;;;32.00;18.92;;;17.50;99.90;;;;;;5010017;28;20751;-63
2021/07/28 06:15:15;;;;;;;28.05;18.73;;;17.60;99.90;;;;;;5009076;28;20597;-66
2021/07/28 06:17:43;;;;;;;30.95;17.33;;;17.60;99.90;;;;;;5011138;28;20219;-63
2021/07/28 06:20:11;;;;;;;23.67;15.18;;;17.60;99.90;;;;;;5010028;28;20196;-67
2021/07/28 06:22:38;;;;;;;24.90;14.77;;;17.60;99.90;;;;;;5009443;28;20197;-64
2021/07/28 06:25:08;;;;;;;21.70;14.02;;;17.60;99.90;;;;;;5010314;28;20271;-67
2021/07/28 06:27:35;;;;;;;24.75;14.30;;;17.60;99.90;;;;;;5012074;28;20299;-65
2021/07/28 06:30:01;;;;;;;21.48;13.10;;;17.60;99.90;;;;;;5011014;28;20200;-65
2021/07/28 06:32:28;;;;;;;20.13;12.60;;;17.70;99.90;;;;;;5012477;28;20707;-63
2021/07/28 06:34:56;;;;;;;21.75;12.25;;;17.70;99.90;;;;;;5012848;28;20209;-68
2021/07/28 06:37:23;;;;;;;17.67;11.63;;;17.80;99.90;;;;;;5006996;28;20653;-65
2021/07/28 06:39:50;;;;;;;19.48;11.73;;;17.80;99.90;;;;;;5007968;28;20211;-65
2021/07/28 06:42:17;;;;;;;17.35;12.05;;;17.90;99.90;;;;;;5009044;28;20208;-66
2021/07/28 06:44:45;;;;;;;19.48;12.10;;;18.00;99.90;;;;;;5008411;28;20289;-67
2021/07/28 06:47:11;;;;;;;24.10;12.05;;;18.10;99.90;;;;;;5009138;28;20208;-66
2021/07/28 06:49:38;;;;;;;21.27;12.70;;;18.10;99.90;;;;;;5010334;28;20239;-68
2021/07/28 06:52:07;;;;;;;15.48;11.70;;;18.10;99.90;;;;;;5007813;28;20221;-66
2021/07/28 06:54:34;;;;;;;15.73;11.27;;;18.10;99.90;;;;;;5009387;28;20215;-68
2021/07/28 06:57:00;;;;;;;19.55;11.80;;;18.10;99.90;;;;;;5007660;28;20299;-64
2021/07/28 06:59:27;;;;;;;21.67;12.07;;;18.10;99.90;;;;;;5008185;28;20212;-63
2021/07/28 07:01:54;;;;;;;21.10;11.68;;;18.10;99.90;;;;;;5007917;28;20204;-66
2021/07/28 07:04:21;;;;;;;19.77;12.50;;;18.10;99.90;;;;;;5009246;28;20259;-63
2021/07/28 07:06:48;;;;;;;20.52;13.00;;;18.10;99.90;;;;;;5010418;28;20660;-67
2021/07/28 07:09:16;;;;;;;28.85;12.90;;;18.10;99.90;;;;;;5010605;28;20196;-66
2021/07/28 07:11:42;;;;;;;23.08;13.40;;;18.10;99.90;;;;;;5008683;28;20224;-69
2021/07/28 07:14:09;;;;;;;21.95;12.98;;;18.10;99.90;;;;;;5009877;28;20553;-65
2021/07/28 07:16:36;;;;;;;18.45;13.45;;;18.10;99.90;;;;;;5011124;28;20208;-67
2021/07/28 07:19:03;;;;;;;19.00;13.07;;;18.10;99.90;;;;;;5011915;28;20211;-66
2021/07/28 07:21:30;;;;;;;21.70;12.55;;;18.20;99.90;;;;;;5010949;28;20201;-68
2021/07/28 07:23:56;;;;;;;18.52;12.07;;;18.20;99.90;;;;;;5009701;28;20207;-72
2021/07/28 07:26:25;;;;;;;20.23;11.60;;;18.30;99.90;;;;;;5009232;28;20208;-66
2021/07/28 07:28:51;;;;;;;20.15;11.70;;;18.30;99.90;;;;;;5009323;28;20231;-69
2021/07/28 07:31:18;;;;;;;20.83;11.45;;;18.40;99.90;;;;;;5011029;28;20604;-69
2021/07/28 07:33:45;;;;;;;16.73;11.07;;;18.40;99.90;;;;;;5004692;28;20205;-75
2021/07/28 07:36:14;;;;;;;21.55;11.77;;;18.40;99.90;;;;;;5009101;28;20219;-69
2021/07/28 07:38:42;;;;;;;17.15;10.73;;;18.40;99.90;;;;;;5009207;28;20282;-67
2021/07/28 07:41:08;;;;;;;22.50;11.63;;;18.40;99.90;;;;;;5011985;28;20362;-65
2021/07/28 07:43:37;;;;;;;20.88;10.90;;;18.40;99.90;;;;;;5011419;28;20211;-70
2021/07/28 07:46:04;;;;;;;20.35;11.60;;;18.40;99.90;;;;;;5010049;28;20294;-67
2021/07/28 07:48:31;;;;;;;16.13;11.25;;;18.30;99.90;;;;;;5013416;28;20782;-63
2021/07/28 07:50:58;;;;;;;20.10;12.07;;;18.40;99.90;;;;;;5003039;28;20204;-66
2021/07/28 07:53:25;;;;;;;20.60;12.25;;;18.30;99.90;;;;;;5008227;28;20251;-62
2021/07/28 07:55:54;;;;;;;25.90;11.48;;;18.30;99.90;;;;;;5009737;28;20200;-64
2021/07/28 07:58:21;;;;;;;18.05;10.68;;;18.40;99.90;;;;;;5007865;28;20207;-63
2021/07/28 08:00:49;;;;;;;15.20;11.00;;;18.50;99.90;;;;;;5012892;28;20212;-66
2021/07/28 08:03:16;;;;;;;21.17;11.63;;;18.50;99.90;;;;;;5011836;28;20722;-68
2021/07/28 08:05:43;;;;;;;17.85;11.38;;;18.50;99.90;;;;;;5012820;28;20732;-68
2021/07/28 08:08:10;;;;;;;18.52;11.40;;;18.60;99.90;;;;;;5010213;28;20209;-65
2021/07/28 08:10:37;;;;;;;19.15;10.40;;;18.70;99.90;;;;;;5013460;28;20254;-65
2021/07/28 08:13:04;;;;;;;16.02;10.80;;;18.80;99.90;;;;;;5011272;28;20224;-65
2021/07/28 08:15:31;;;;;;;18.00;10.48;;;18.80;99.90;;;;;;5008866;28;20657;-70
2021/07/28 08:18:00;;;;;;;18.08;10.07;;;18.90;99.90;;;;;;5011975;28;20584;-69
2021/07/28 08:20:27;;;;;;;17.88;10.18;;;18.90;99.90;;;;;;4988720;28;20628;-66
2021/07/28 08:22:54;;;;;;;12.85;9.10;;;18.90;99.90;;;;;;5010408;28;20597;-65
2021/07/28 08:25:21;;;;;;;18.98;9.70;;;18.90;99.90;;;;;;5010338;28;20246;-64
2021/07/28 08:27:48;;;;;;;15.57;10.30;;;18.90;99.90;;;;;;5008200;28;20530;-69
2021/07/28 08:30:15;;;;;;;14.50;9.38;;;18.90;99.90;;;;;;5010027;28;20193;-67
2021/07/28 08:32:42;;;;;;;16.85;9.52;;;18.90;99.90;;;;;;5008356;28;20220;-63
2021/07/28 08:35:11;;;;;;;17.95;9.45;;;19.00;99.90;;;;;;5009255;28;20208;-65
2021/07/28 08:37:39;;;;;;;20.25;8.70;;;19.10;99.90;;;;;;5009257;28;20604;-64
2021/07/28 08:40:10;;;;;;;11.88;8.07;;;19.10;99.90;;;;;;5009988;28;20213;-67
2021/07/28 08:42:39;;;;;;;18.05;8.40;;;19.20;99.90;;;;;;5006195;28;20201;-64
2021/07/28 08:45:08;;;;;;;16.80;8.65;;;19.20;99.90;;;;;;5010126;28;20205;-67
2021/07/28 08:47:36;;;;;;;12.38;8.93;;;19.30;99.90;;;;;;5009993;28;20192;-66
2021/07/28 08:50:04;;;;;;;14.75;9.15;;;19.30;99.90;;;;;;5007555;28;20240;-66
2021/07/28 08:52:34;;;;;;;18.50;9.75;;;19.20;99.90;;;;;;5007755;28;20898;-65
2021/07/28 08:55:01;;;;;;;20.17;10.90;;;19.10;99.90;;;;;;5008831;28;20203;-65
2021/07/28 08:57:29;;;;;;;24.08;10.70;;;19.00;99.90;;;;;;5006522;28;20726;-65
2021/07/28 08:59:57;;;;;;;14.73;10.07;;;18.80;99.90;;;;;;5007234;28;20208;-64
2021/07/28 09:02:24;;;;;;;16.10;10.95;;;18.60;99.90;;;;;;5005899;28;20197;-66
2021/07/28 09:04:51;;;;;;;24.10;13.40;;;18.40;99.90;;;;;;5008383;28;20263;-64
2021/07/28 09:07:20;;;;;;;22.35;12.70;;;18.30;99.90;;;;;;5009563;28;20212;-62
2021/07/28 09:09:53;;;;;;;24.98;13.82;;;18.10;99.90;;;;;;5012311;28;20213;-64
2021/07/28 09:12:20;;;;;;;23.27;14.23;;;18.00;99.90;;;;;;5011918;28;20213;-63
2021/07/28 09:14:55;;;;;;;23.00;15.07;;;18.00;99.90;;;;;;5013086;28;20208;-62
2021/07/28 09:17:27;;;;;;;26.60;15.50;;;17.90;99.90;;;;;;5011135;28;20295;-66
2021/07/28 09:19:54;;;;;;;25.70;15.95;;;17.80;99.90;;;;;;5013366;28;20204;-64
2021/07/28 09:22:22;;;;;;;25.85;15.25;;;17.80;99.90;;;;;;5014016;28;20204;-62
2021/07/28 09:25:13;;;;;;;27.42;16.35;;;17.80;99.90;;;;;;5010958;28;20297;-64
2021/07/28 09:27:46;;;;;;;23.63;15.88;;;17.80;99.90;;;;;;5012740;28;20236;-63
2021/07/28 09:30:16;;;;;;;24.30;15.50;;;17.90;99.90;;;;;;4997132;28;20204;-63
2021/07/28 09:33:05;;;;;;;28.00;16.48;;;17.90;99.90;;;;;;5013925;28;20635;-62
2021/07/28 09:36:10;;;;;;;24.92;16.35;;;17.90;99.90;;;;;;5009970;28;20216;-65
2021/07/28 09:38:42;;;;;;;26.77;16.38;;;17.90;99.90;;;;;;5003679;28;20224;-64
2021/07/28 09:41:23;;;;;;;24.83;17.27;;;17.90;99.90;;;;;;5011883;28;20204;-65
2021/07/28 09:43:55;;;;;;;33.58;17.85;;;17.90;99.90;;;;;;5012475;28;20209;-62
2021/07/28 09:46:28;;;;;;;30.60;18.63;;;17.90;99.90;;;;;;5010898;28;20211;-67
2021/07/28 09:48:55;;;;;;;32.15;18.13;;;17.90;99.90;;;;;;5014870;28;20882;-62
2021/07/28 09:51:27;;;;;;;27.02;19.17;;;17.90;99.90;;;;;;4998315;28;20212;-62
2021/07/28 09:53:59;;;;;;;32.45;17.85;;;18.00;99.90;;;;;;5014716;28;20212;-62
2021/07/28 09:56:35;;;;;;;39.42;17.95;;;18.00;99.90;;;;;;5012775;28;20204;-62
2021/07/28 09:59:04;;;;;;;25.35;17.35;;;18.10;99.90;;;;;;5015806;28;20942;-62
2021/07/28 10:01:33;;;;;;;29.50;17.10;;;18.10;99.90;;;;;;5013936;28;20626;-64
2021/07/28 10:04:01;;;;;;;26.05;15.07;;;18.20;99.90;;;;;;5012145;28;20197;-63
2021/07/28 10:06:33;;;;;;;25.25;14.88;;;18.20;99.90;;;;;;5014469;28;20687;-62
2021/07/28 10:09:01;;;;;;;27.02;14.43;;;18.20;99.90;;;;;;5012912;28;20205;-63
2021/07/28 10:11:30;;;;;;;23.15;13.93;;;18.20;99.90;;;;;;5011485;28;20208;-63
2021/07/28 10:13:57;;;;;;;22.80;12.20;;;18.30;99.90;;;;;;5007948;28;20220;-65
2021/07/28 10:16:24;;;;;;;21.20;12.55;;;18.40;99.90;;;;;;5012986;28;20196;-63
2021/07/28 10:18:51;;;;;;;23.02;12.20;;;18.50;99.90;;;;;;5010828;28;20204;-65
2021/07/28 10:21:19;;;;;;;20.13;10.75;;;18.60;99.90;;;;;;5013631;28;20295;-65
2021/07/28 10:23:48;;;;;;;22.30;11.70;;;18.60;99.90;;;;;;5013558;28;20262;-66
2021/07/28 10:26:18;;;;;;;20.05;11.27;;;18.60;99.90;;;;;;5012920;28;20664;-62
2021/07/28 10:28:49;;;;;;;18.58;10.43;;;18.70;99.90;;;;;;5013967;28;20258;-63
2021/07/28 10:31:18;;;;;;;26.27;9.32;;;18.70;99.90;;;;;;5011451;28;20236;-65
2021/07/28 10:33:49;;;;;;;22.95;10.30;;;18.80;99.90;;;;;;5011215;28;20229;-63
2021/07/28 10:36:17;;;;;;;25.52;11.15;;;18.80;99.90;;;;;;5008923;28;20283;-63
2021/07/28 10:38:55;;;;;;;17.90;10.23;;;18.80;99.90;;;;;;5010493;28;20207;-65
2021/07/28 10:41:48;;;;;;;20.95;9.95;;;18.80;99.90;;;;;;5009559;28;20208;-64
2021/07/28 10:44:19;;;;;;;21.90;9.65;;;18.90;99.90;;;;;;5010209;28;20606;-64
2021/07/28 10:47:16;;;;;;;15.05;9.98;;;18.90;99.90;;;;;;5007300;28;20204;-64
2021/07/28 10:49:47;;;;;;;15.45;9.02;;;18.90;99.90;;;;;;4974882;28;20239;-66
2021/07/28 10:52:37;;;;;;;16.80;8.32;;;18.90;99.90;;;;;;5009969;28;20222;-66
2021/07/28 10:55:26;;;;;;;15.77;9.52;;;19.00;99.90;;;;;;5009652;28;20275;-63
2021/07/28 10:58:25;;;;;;;17.08;8.43;;;19.10;99.90;;;;;;5005633;28;20216;-62
2021/07/28 11:00:55;;;;;;;18.33;9.57;;;19.10;99.90;;;;;;5010729;28;20205;-65
2021/07/28 11:03:38;;;;;;;19.42;9.45;;;19.10;99.90;;;;;;5007373;28;20280;-65
2021/07/28 11:06:19;;;;;;;21.65;9.80;;;19.20;99.90;;;;;;5006723;28;20648;-65
2021/07/28 11:08:48;;;;;;;18.92;10.10;;;19.10;99.90;;;;;;5008998;28;20235;-64
2021/07/28 11:11:31;;;;;;;15.27;8.98;;;19.10;99.90;;;;;;5003972;28;20324;-67
2021/07/28 11:14:04;;;;;;;16.75;9.45;;;19.10;99.90;;;;;;5009070;28;20231;-62
2021/07/28 11:16:35;;;;;;;21.23;7.53;;;19.10;99.90;;;;;;5008476;28;20220;-64
2021/07/28 11:19:02;;;;;;;19.45;7.68;;;19.10;99.90;;;;;;5009107;28;20259;-64
2021/07/28 11:21:30;;;;;;;19.88;8.65;;;18.90;99.90;;;;;;5011209;28;20669;-66
2021/07/28 11:24:02;;;;;;;15.85;9.30;;;18.80;99.90;;;;;;5011720;28;20677;-65
2021/07/28 11:26:31;;;;;;;20.75;10.10;;;18.70;99.90;;;;;;5009604;28;20254;-64
2021/07/28 11:29:00;;;;;;;20.27;10.50;;;18.60;99.90;;;;;;5011062;28;20322;-65
2021/07/28 11:31:39;;;;;;;16.80;10.40;;;18.50;99.90;;;;;;5010448;28;20209;-62
2021/07/28 11:34:09;;;;;;;23.92;11.45;;;18.50;99.90;;;;;;5012259;28;20228;-65
2021/07/28 11:36:36;;;;;;;19.17;11.85;;;18.50;99.90;;;;;;5010652;28;20212;-64
2021/07/28 11:39:15;;;;;;;21.88;11.30;;;18.40;99.90;;;;;;5014522;28;20204;-63
2021/07/28 11:41:42;;;;;;;22.35;11.80;;;18.40;99.90;;;;;;5011303;28;20207;-66
2021/07/28 11:44:09;;;;;;;26.77;11.52;;;18.30;99.90;;;;;;5015340;28;20603;-64
2021/07/28 11:46:36;;;;;;;32.17;12.30;;;18.20;99.90;;;;;;5008847;28;20204;-65
2021/07/28 11:49:09;;;;;;;22.42;11.60;;;18.10;99.90;;;;;;5008921;28;20575;-63
2021/07/28 11:51:37;;;;;;;22.08;13.13;;;18.00;99.90;;;;;;5010376;28;20299;-64
2021/07/28 11:54:09;;;;;;;25.17;14.20;;;17.90;99.90;;;;;;5011870;28;20269;-65
2021/07/28 11:56:37;;;;;;;22.85;14.40;;;17.90;99.90;;;;;;5007160;28;20197;-64
2021/07/28 11:59:04;;;;;;;30.15;14.45;;;17.90;99.90;;;;;;5009830;28;20192;-65
2021/07/28 12:01:32;;;;;;;29.33;13.77;;;17.90;99.90;;;;;;5007578;28;20204;-64
2021/07/28 12:04:04;;;;;;;37.90;14.05;;;17.90;99.90;;;;;;5011078;28;20255;-66
2021/07/28 12:06:35;;;;;;;32.67;14.70;;;17.90;99.90;;;;;;5009906;28;20664;-65
2021/07/28 12:09:10;;;;;;;29.35;15.05;;;18.00;99.90;;;;;;5008477;28;20653;-65
2021/07/28 12:12:01;;;;;;;43.28;16.00;;;18.10;99.90;;;;;;5010500;28;20200;-63
2021/07/28 12:14:41;;;;;;;33.45;14.70;;;18.30;99.90;;;;;;4987006;28;20225;-66
2021/07/28 12:17:23;;;;;;;26.58;13.02;;;18.60;99.90;;;;;;5003807;28;20223;-65
2021/07/28 12:19:54;;;;;;;31.23;11.70;;;18.90;99.90;;;;;;5009957;28;20255;-64
2021/07/28 12:22:30;;;;;;;25.85;10.77;;;19.10;99.90;;;;;;5009672;28;20269;-66
2021/07/28 12:25:16;;;;;;;20.88;9.07;;;19.20;99.90;;;;;;5006034;28;20292;-66
2021/07/28 12:28:01;;;;;;;20.27;8.38;;;19.40;99.90;;;;;;5006560;28;20644;-65
2021/07/28 12:30:29;;;;;;;16.80;8.68;;;19.50;99.90;;;;;;5009178;28;20257;-66
2021/07/28 12:33:08;;;;;;;22.95;9.27;;;19.60;99.90;;;;;;4991364;28;20220;-66
2021/07/28 12:35:41;;;;;;;19.88;8.88;;;19.70;99.90;;;;;;5005978;28;20219;-66
2021/07/28 12:38:21;;;;;;;17.67;8.13;;;19.80;99.90;;;;;;5010278;28;20216;-64
2021/07/28 12:40:52;;;;;;;19.02;7.53;;;20.00;99.90;;;;;;5004742;28;20572;-65